sensor_id;sensor_type;location;lat;lon;timestamp;temperature;humidity
28484;DHT22;15704;48.834;8.736;2022-08-04T00:01:20;23.50;90.20
28484;DHT22;15704;48.834;8.736;2022-08-04T00:05:06;23.50;90.00
28484;DHT22;15704;48.834;8.736;2022-08-04T00:08:55;23.50;89.60
28484;DHT22;15704;48.834;8.736;2022-08-04T00:12:41;23.60;89.50
28484;DHT22;15704;48.834;8.736;2022-08-04T00:16:28;23.60;89.10
28484;DHT22;15704;48.834;8.736;2022-08-04T00:20:19;23.60;89.00
28484;DHT22;15704;48.834;8.736;2022-08-04T00:24:05;23.60;88.80
28484;DHT22;15704;48.834;8.736;2022-08-04T00:27:53;23.60;88.90
28484;DHT22;15704;48.834;8.736;2022-08-04T00:31:35;23.60;89.00
28484;DHT22;15704;48.834;8.736;2022-08-04T00:35:38;23.50;89.30
28484;DHT22;15704;48.834;8.736;2022-08-04T00:39:22;23.50;89.60
28484;DHT22;15704;48.834;8.736;2022-08-04T00:43:11;23.50;89.60
28484;DHT22;15704;48.834;8.736;2022-08-04T00:47:04;23.50;89.90
28484;DHT22;15704;48.834;8.736;2022-08-04T00:50:54;23.50;90.00
28484;DHT22;15704;48.834;8.736;2022-08-04T00:55:05;23.50;90.00
28484;DHT22;15704;48.834;8.736;2022-08-04T00:59:02;23.40;90.10
28484;DHT22;15704;48.834;8.736;2022-08-04T01:02:56;23.40;90.30
28484;DHT22;15704;48.834;8.736;2022-08-04T01:06:48;23.30;90.40
28484;DHT22;15704;48.834;8.736;2022-08-04T01:10:44;23.30;90.60
28484;DHT22;15704;48.834;8.736;2022-08-04T01:14:51;23.20;90.70
28484;DHT22;15704;48.834;8.736;2022-08-04T01:18:48;23.30;90.70
28484;DHT22;15704;48.834;8.736;2022-08-04T01:27:05;23.30;90.80
28484;DHT22;15704;48.834;8.736;2022-08-04T01:30:56;23.30;90.80
28484;DHT22;15704;48.834;8.736;2022-08-04T01:34:42;23.20;90.80
28484;DHT22;15704;48.834;8.736;2022-08-04T01:38:28;23.20;91.00
28484;DHT22;15704;48.834;8.736;2022-08-04T01:42:12;23.20;91.00
28484;DHT22;15704;48.834;8.736;2022-08-04T01:46:15;23.20;91.00
28484;DHT22;15704;48.834;8.736;2022-08-04T01:50:03;23.10;91.10
28484;DHT22;15704;48.834;8.736;2022-08-04T01:53:46;23.20;91.10
28484;DHT22;15704;48.834;8.736;2022-08-04T01:57:31;23.10;91.10
28484;DHT22;15704;48.834;8.736;2022-08-04T02:01:20;23.10;91.00
28484;DHT22;15704;48.834;8.736;2022-08-04T02:05:04;23.10;90.90
28484;DHT22;15704;48.834;8.736;2022-08-04T02:08:52;23.10;90.90
28484;DHT22;15704;48.834;8.736;2022-08-04T02:12:51;23.10;90.90
28484;DHT22;15704;48.834;8.736;2022-08-04T02:16:43;23.10;90.80
28484;DHT22;15704;48.834;8.736;2022-08-04T02:20:34;23.10;90.60
28484;DHT22;15704;48.834;8.736;2022-08-04T02:24:21;23.10;90.40
28484;DHT22;15704;48.834;8.736;2022-08-04T02:28:18;23.10;90.30
28484;DHT22;15704;48.834;8.736;2022-08-04T02:32:06;23.10;90.30
28484;DHT22;15704;48.834;8.736;2022-08-04T02:35:58;23.10;90.20
28484;DHT22;15704;48.834;8.736;2022-08-04T02:39:43;23.10;90.10
28484;DHT22;15704;48.834;8.736;2022-08-04T02:43:30;23.10;90.00
28484;DHT22;15704;48.834;8.736;2022-08-04T02:47:34;23.00;90.10
28484;DHT22;15704;48.834;8.736;2022-08-04T02:51:44;23.00;90.20
28484;DHT22;15704;48.834;8.736;2022-08-04T02:55:28;23.00;90.20
28484;DHT22;15704;48.834;8.736;2022-08-04T02:59:12;22.90;90.30
28484;DHT22;15704;48.834;8.736;2022-08-04T03:03:06;22.80;90.30
28484;DHT22;15704;48.834;8.736;2022-08-04T03:11:34;22.80;90.30
28484;DHT22;15704;48.834;8.736;2022-08-04T03:15:34;22.80;90.40
28484;DHT22;15704;48.834;8.736;2022-08-04T03:19:56;22.70;90.40
28484;DHT22;15704;48.834;8.736;2022-08-04T03:37:33;22.70;90.50
28484;DHT22;15704;48.834;8.736;2022-08-04T03:41:30;22.70;90.40
28484;DHT22;15704;48.834;8.736;2022-08-04T03:46:15;22.70;90.30
28484;DHT22;15704;48.834;8.736;2022-08-04T03:50:34;22.80;90.10
28484;DHT22;15704;48.834;8.736;2022-08-04T03:55:13;22.90;90.20
28484;DHT22;15704;48.834;8.736;2022-08-04T03:59:22;22.80;90.20
28484;DHT22;15704;48.834;8.736;2022-08-04T04:03:33;22.80;90.20
28484;DHT22;15704;48.834;8.736;2022-08-04T04:12:28;22.80;90.30
28484;DHT22;15704;48.834;8.736;2022-08-04T04:16:26;22.80;90.20
28484;DHT22;15704;48.834;8.736;2022-08-04T04:20:24;22.70;90.20
28484;DHT22;15704;48.834;8.736;2022-08-04T04:24:33;22.80;90.20
28484;DHT22;15704;48.834;8.736;2022-08-04T04:28:37;22.90;90.00
28484;DHT22;15704;48.834;8.736;2022-08-04T04:32:35;23.00;89.90
28484;DHT22;15704;48.834;8.736;2022-08-04T04:36:28;23.00;89.70
28484;DHT22;15704;48.834;8.736;2022-08-04T04:40:21;23.10;89.30
28484;DHT22;15704;48.834;8.736;2022-08-04T04:44:30;23.20;89.20
28484;DHT22;15704;48.834;8.736;2022-08-04T04:48:26;23.40;88.50
28484;DHT22;15704;48.834;8.736;2022-08-04T04:52:20;23.50;88.20
28484;DHT22;15704;48.834;8.736;2022-08-04T04:56:13;23.60;88.20
28484;DHT22;15704;48.834;8.736;2022-08-04T04:59:59;23.60;88.20
28484;DHT22;15704;48.834;8.736;2022-08-04T05:04:00;23.60;88.40
28484;DHT22;15704;48.834;8.736;2022-08-04T05:08:15;23.70;88.40
28484;DHT22;15704;48.834;8.736;2022-08-04T05:12:36;23.80;88.10
28484;DHT22;15704;48.834;8.736;2022-08-04T05:16:46;23.90;87.80
28484;DHT22;15704;48.834;8.736;2022-08-04T05:20:42;24.00;87.90
28484;DHT22;15704;48.834;8.736;2022-08-04T05:24:26;24.10;88.10
28484;DHT22;15704;48.834;8.736;2022-08-04T05:28:17;24.20;87.80
28484;DHT22;15704;48.834;8.736;2022-08-04T05:32:06;24.30;87.70
28484;DHT22;15704;48.834;8.736;2022-08-04T05:35:56;24.40;87.20
28484;DHT22;15704;48.834;8.736;2022-08-04T05:40:03;24.50;86.80
28484;DHT22;15704;48.834;8.736;2022-08-04T05:43:48;24.70;86.90
28484;DHT22;15704;48.834;8.736;2022-08-04T05:47:33;24.80;86.30
28484;DHT22;15704;48.834;8.736;2022-08-04T05:51:17;24.90;85.80
28484;DHT22;15704;48.834;8.736;2022-08-04T05:55:00;25.10;85.70
28484;DHT22;15704;48.834;8.736;2022-08-04T05:58:45;25.20;84.90
28484;DHT22;15704;48.834;8.736;2022-08-04T06:02:29;25.40;84.60
28484;DHT22;15704;48.834;8.736;2022-08-04T06:06:14;25.60;83.90
28484;DHT22;15704;48.834;8.736;2022-08-04T06:09:59;25.70;83.50
28484;DHT22;15704;48.834;8.736;2022-08-04T06:13:46;25.90;83.70
28484;DHT22;15704;48.834;8.736;2022-08-04T06:17:34;25.90;86.20
28484;DHT22;15704;48.834;8.736;2022-08-04T06:21:41;25.90;87.40
28484;DHT22;15704;48.834;8.736;2022-08-04T06:25:28;25.80;87.40
28484;DHT22;15704;48.834;8.736;2022-08-04T06:29:13;25.50;88.20
28484;DHT22;15704;48.834;8.736;2022-08-04T06:33:08;25.70;89.50
28484;DHT22;15704;48.834;8.736;2022-08-04T06:37:06;25.80;87.50
28484;DHT22;15704;48.834;8.736;2022-08-04T06:40:50;26.10;87.70
28484;DHT22;15704;48.834;8.736;2022-08-04T06:44:34;26.30;85.20
28484;DHT22;15704;48.834;8.736;2022-08-04T06:48:17;26.60;84.70
28484;DHT22;15704;48.834;8.736;2022-08-04T06:52:03;26.70;82.70
28484;DHT22;15704;48.834;8.736;2022-08-04T06:55:49;27.00;81.40
28484;DHT22;15704;48.834;8.736;2022-08-04T06:59:32;27.00;87.10
28484;DHT22;15704;48.834;8.736;2022-08-04T07:03:17;27.10;87.50
28484;DHT22;15704;48.834;8.736;2022-08-04T07:07:02;27.20;86.30
28484;DHT22;15704;48.834;8.736;2022-08-04T07:10:44;27.30;83.50
28484;DHT22;15704;48.834;8.736;2022-08-04T07:14:30;27.40;82.60
28484;DHT22;15704;48.834;8.736;2022-08-04T07:18:16;27.60;80.90
28484;DHT22;15704;48.834;8.736;2022-08-04T07:22:00;27.70;83.20
28484;DHT22;15704;48.834;8.736;2022-08-04T07:26:04;27.80;82.70
28484;DHT22;15704;48.834;8.736;2022-08-04T07:29:55;27.90;80.70
28484;DHT22;15704;48.834;8.736;2022-08-04T07:33:40;27.90;82.00
28484;DHT22;15704;48.834;8.736;2022-08-04T07:37:24;27.90;81.70
28484;DHT22;15704;48.834;8.736;2022-08-04T07:41:21;28.10;80.80
28484;DHT22;15704;48.834;8.736;2022-08-04T07:45:22;28.40;80.10
28484;DHT22;15704;48.834;8.736;2022-08-04T07:49:06;28.60;78.30
28484;DHT22;15704;48.834;8.736;2022-08-04T07:52:49;28.60;76.40
28484;DHT22;15704;48.834;8.736;2022-08-04T07:56:52;28.60;73.70
28484;DHT22;15704;48.834;8.736;2022-08-04T08:00:37;28.70;73.70
28484;DHT22;15704;48.834;8.736;2022-08-04T08:04:21;28.80;75.70
28484;DHT22;15704;48.834;8.736;2022-08-04T08:08:05;29.10;76.90
28484;DHT22;15704;48.834;8.736;2022-08-04T08:11:50;29.30;76.20
28484;DHT22;15704;48.834;8.736;2022-08-04T08:15:55;29.10;75.80
28484;DHT22;15704;48.834;8.736;2022-08-04T08:19:39;29.50;75.10
28484;DHT22;15704;48.834;8.736;2022-08-04T08:23:22;29.70;73.60
28484;DHT22;15704;48.834;8.736;2022-08-04T08:27:06;30.00;73.90
28484;DHT22;15704;48.834;8.736;2022-08-04T08:30:49;29.90;73.90
28484;DHT22;15704;48.834;8.736;2022-08-04T08:34:35;30.30;71.80
28484;DHT22;15704;48.834;8.736;2022-08-04T08:38:24;30.30;70.80
28484;DHT22;15704;48.834;8.736;2022-08-04T08:42:33;30.30;70.90
28484;DHT22;15704;48.834;8.736;2022-08-04T08:46:42;30.40;71.10
28484;DHT22;15704;48.834;8.736;2022-08-04T08:50:49;30.40;70.40
28484;DHT22;15704;48.834;8.736;2022-08-04T08:54:54;30.30;70.30
28484;DHT22;15704;48.834;8.736;2022-08-04T08:58:48;30.40;71.40
28484;DHT22;15704;48.834;8.736;2022-08-04T09:03:02;30.50;70.20
28484;DHT22;15704;48.834;8.736;2022-08-04T09:07:12;30.60;71.30
28484;DHT22;15704;48.834;8.736;2022-08-04T09:11:07;30.60;70.60
28484;DHT22;15704;48.834;8.736;2022-08-04T09:14:56;30.60;69.00
28484;DHT22;15704;48.834;8.736;2022-08-04T09:18:46;30.70;69.40
28484;DHT22;15704;48.834;8.736;2022-08-04T09:22:38;30.60;69.70
28484;DHT22;15704;48.834;8.736;2022-08-04T09:26:31;30.60;69.40
28484;DHT22;15704;48.834;8.736;2022-08-04T09:30:19;30.90;70.80
28484;DHT22;15704;48.834;8.736;2022-08-04T09:34:10;30.80;70.50
28484;DHT22;15704;48.834;8.736;2022-08-04T09:37:59;30.70;70.40
28484;DHT22;15704;48.834;8.736;2022-08-04T09:41:54;30.60;70.90
28484;DHT22;15704;48.834;8.736;2022-08-04T09:45:47;30.80;70.30
28484;DHT22;15704;48.834;8.736;2022-08-04T09:49:37;30.70;70.80
28484;DHT22;15704;48.834;8.736;2022-08-04T09:53:47;30.90;69.90
28484;DHT22;15704;48.834;8.736;2022-08-04T09:57:41;31.00;70.10
28484;DHT22;15704;48.834;8.736;2022-08-04T10:01:28;31.10;69.00
28484;DHT22;15704;48.834;8.736;2022-08-04T10:05:15;31.10;69.80
28484;DHT22;15704;48.834;8.736;2022-08-04T10:09:11;31.20;69.60
28484;DHT22;15704;48.834;8.736;2022-08-04T10:13:17;31.30;68.50
28484;DHT22;15704;48.834;8.736;2022-08-04T10:17:18;31.40;68.90
28484;DHT22;15704;48.834;8.736;2022-08-04T10:21:07;31.40;68.10
28484;DHT22;15704;48.834;8.736;2022-08-04T10:25:02;31.50;69.00
28484;DHT22;15704;48.834;8.736;2022-08-04T10:29:11;31.30;67.90
28484;DHT22;15704;48.834;8.736;2022-08-04T10:33:02;31.30;67.10
28484;DHT22;15704;48.834;8.736;2022-08-04T10:36:52;31.50;67.60
28484;DHT22;15704;48.834;8.736;2022-08-04T10:40:42;31.50;66.00
28484;DHT22;15704;48.834;8.736;2022-08-04T10:44:32;31.70;67.20
28484;DHT22;15704;48.834;8.736;2022-08-04T10:48:28;31.60;66.50
28484;DHT22;15704;48.834;8.736;2022-08-04T10:52:22;31.70;66.20
28484;DHT22;15704;48.834;8.736;2022-08-04T10:56:14;32.00;65.60
28484;DHT22;15704;48.834;8.736;2022-08-04T11:00:01;32.10;63.60
28484;DHT22;15704;48.834;8.736;2022-08-04T11:03:50;32.20;64.30
28484;DHT22;15704;48.834;8.736;2022-08-04T11:07:37;32.10;63.70
28484;DHT22;15704;48.834;8.736;2022-08-04T11:11:25;32.30;63.00
28484;DHT22;15704;48.834;8.736;2022-08-04T11:15:11;32.50;62.80
28484;DHT22;15704;48.834;8.736;2022-08-04T11:19:09;32.20;63.40
28484;DHT22;15704;48.834;8.736;2022-08-04T11:23:04;32.20;63.90
28484;DHT22;15704;48.834;8.736;2022-08-04T11:26:52;32.30;63.70
28484;DHT22;15704;48.834;8.736;2022-08-04T11:30:43;32.50;63.80
28484;DHT22;15704;48.834;8.736;2022-08-04T11:34:29;32.40;63.30
28484;DHT22;15704;48.834;8.736;2022-08-04T11:38:20;32.40;62.60
28484;DHT22;15704;48.834;8.736;2022-08-04T11:42:17;32.30;63.90
28484;DHT22;15704;48.834;8.736;2022-08-04T11:46:07;32.20;64.30
28484;DHT22;15704;48.834;8.736;2022-08-04T11:49:55;32.70;63.40
28484;DHT22;15704;48.834;8.736;2022-08-04T11:53:40;32.60;62.80
28484;DHT22;15704;48.834;8.736;2022-08-04T11:57:25;32.60;62.20
28484;DHT22;15704;48.834;8.736;2022-08-04T12:01:22;32.80;62.40
28484;DHT22;15704;48.834;8.736;2022-08-04T12:05:07;33.00;61.90
28484;DHT22;15704;48.834;8.736;2022-08-04T12:09:17;32.80;61.10
28484;DHT22;15704;48.834;8.736;2022-08-04T12:13:17;32.40;61.40
28484;DHT22;15704;48.834;8.736;2022-08-04T12:17:05;32.40;62.50
28484;DHT22;15704;48.834;8.736;2022-08-04T12:20:52;32.30;62.40
28484;DHT22;15704;48.834;8.736;2022-08-04T12:24:43;32.50;61.90
28484;DHT22;15704;48.834;8.736;2022-08-04T12:28:31;32.50;61.90
28484;DHT22;15704;48.834;8.736;2022-08-04T12:32:37;32.50;61.90
28484;DHT22;15704;48.834;8.736;2022-08-04T12:36:37;32.80;61.80
28484;DHT22;15704;48.834;8.736;2022-08-04T12:40:24;32.70;61.20
28484;DHT22;15704;48.834;8.736;2022-08-04T12:44:13;33.00;61.00
28484;DHT22;15704;48.834;8.736;2022-08-04T12:48:16;33.20;59.90
28484;DHT22;15704;48.834;8.736;2022-08-04T12:52:04;33.70;59.70
28484;DHT22;15704;48.834;8.736;2022-08-04T12:55:51;33.80;59.60
28484;DHT22;15704;48.834;8.736;2022-08-04T12:59:45;33.50;59.60
28484;DHT22;15704;48.834;8.736;2022-08-04T13:03:40;33.40;59.70
28484;DHT22;15704;48.834;8.736;2022-08-04T13:07:25;33.30;59.90
28484;DHT22;15704;48.834;8.736;2022-08-04T13:11:10;33.30;59.60
28484;DHT22;15704;48.834;8.736;2022-08-04T13:15:07;33.60;59.10
28484;DHT22;15704;48.834;8.736;2022-08-04T13:18:59;33.90;59.00
28484;DHT22;15704;48.834;8.736;2022-08-04T13:22:45;34.20;59.00
28484;DHT22;15704;48.834;8.736;2022-08-04T13:26:33;34.20;58.50
28484;DHT22;15704;48.834;8.736;2022-08-04T13:30:35;33.80;59.00
28484;DHT22;15704;48.834;8.736;2022-08-04T13:34:18;33.90;58.60
28484;DHT22;15704;48.834;8.736;2022-08-04T13:38:02;33.80;58.60
28484;DHT22;15704;48.834;8.736;2022-08-04T13:41:47;33.60;58.90
28484;DHT22;15704;48.834;8.736;2022-08-04T13:45:40;33.50;58.30
28484;DHT22;15704;48.834;8.736;2022-08-04T13:49:23;33.60;58.80
28484;DHT22;15704;48.834;8.736;2022-08-04T13:53:25;33.40;58.20
28484;DHT22;15704;48.834;8.736;2022-08-04T13:57:14;33.50;58.30
28484;DHT22;15704;48.834;8.736;2022-08-04T14:01:03;33.60;58.70
28484;DHT22;15704;48.834;8.736;2022-08-04T14:04:52;33.70;58.50
28484;DHT22;15704;48.834;8.736;2022-08-04T14:08:48;33.90;58.70
28484;DHT22;15704;48.834;8.736;2022-08-04T14:12:31;33.80;57.90
28484;DHT22;15704;48.834;8.736;2022-08-04T14:16:28;33.50;58.50
28484;DHT22;15704;48.834;8.736;2022-08-04T14:20:11;33.90;57.60
28484;DHT22;15704;48.834;8.736;2022-08-04T14:23:55;33.90;58.30
28484;DHT22;15704;48.834;8.736;2022-08-04T14:27:44;33.70;57.70
28484;DHT22;15704;48.834;8.736;2022-08-04T14:31:28;33.60;58.00
28484;DHT22;15704;48.834;8.736;2022-08-04T14:35:12;33.80;57.60
28484;DHT22;15704;48.834;8.736;2022-08-04T14:38:56;33.90;57.60
28484;DHT22;15704;48.834;8.736;2022-08-04T14:42:44;34.00;57.30
28484;DHT22;15704;48.834;8.736;2022-08-04T14:46:49;34.20;56.70
28484;DHT22;15704;48.834;8.736;2022-08-04T14:50:36;34.30;56.80
28484;DHT22;15704;48.834;8.736;2022-08-04T14:54:25;34.60;56.40
28484;DHT22;15704;48.834;8.736;2022-08-04T14:58:16;34.40;56.30
28484;DHT22;15704;48.834;8.736;2022-08-04T15:02:20;34.20;56.60
28484;DHT22;15704;48.834;8.736;2022-08-04T15:06:10;34.10;57.20
28484;DHT22;15704;48.834;8.736;2022-08-04T15:09:58;34.10;56.80
28484;DHT22;15704;48.834;8.736;2022-08-04T15:13:41;34.30;56.40
28484;DHT22;15704;48.834;8.736;2022-08-04T15:17:26;34.30;56.10
28484;DHT22;15704;48.834;8.736;2022-08-04T15:21:11;34.60;55.90
28484;DHT22;15704;48.834;8.736;2022-08-04T15:24:55;34.80;55.50
28484;DHT22;15704;48.834;8.736;2022-08-04T15:28:40;34.90;55.50
28484;DHT22;15704;48.834;8.736;2022-08-04T15:32:25;35.00;55.10
28484;DHT22;15704;48.834;8.736;2022-08-04T15:36:12;35.10;55.10
28484;DHT22;15704;48.834;8.736;2022-08-04T15:39:59;35.10;55.10
28484;DHT22;15704;48.834;8.736;2022-08-04T15:43:52;35.10;54.50
28484;DHT22;15704;48.834;8.736;2022-08-04T15:47:39;35.10;55.30
28484;DHT22;15704;48.834;8.736;2022-08-04T15:51:32;35.10;54.80
28484;DHT22;15704;48.834;8.736;2022-08-04T15:55:33;35.20;54.80
28484;DHT22;15704;48.834;8.736;2022-08-04T15:59:56;35.40;54.20
28484;DHT22;15704;48.834;8.736;2022-08-04T16:03:45;35.60;53.90
28484;DHT22;15704;48.834;8.736;2022-08-04T16:07:55;35.30;53.40
28484;DHT22;15704;48.834;8.736;2022-08-04T16:11:38;35.20;53.90
28484;DHT22;15704;48.834;8.736;2022-08-04T16:15:36;35.50;53.90
28484;DHT22;15704;48.834;8.736;2022-08-04T16:19:27;35.60;53.70
28484;DHT22;15704;48.834;8.736;2022-08-04T16:27:42;35.60;52.80
28484;DHT22;15704;48.834;8.736;2022-08-04T16:31:25;35.30;53.30
28484;DHT22;15704;48.834;8.736;2022-08-04T16:35:23;35.30;53.20
28484;DHT22;15704;48.834;8.736;2022-08-04T16:39:17;35.50;52.90
28484;DHT22;15704;48.834;8.736;2022-08-04T16:43:02;35.50;52.20
28484;DHT22;15704;48.834;8.736;2022-08-04T16:46:45;35.30;52.50
28484;DHT22;15704;48.834;8.736;2022-08-04T16:51:00;35.20;51.50
28484;DHT22;15704;48.834;8.736;2022-08-04T16:54:45;35.30;51.50
28484;DHT22;15704;48.834;8.736;2022-08-04T16:58:29;35.00;50.50
28484;DHT22;15704;48.834;8.736;2022-08-04T17:02:13;34.90;50.50
28484;DHT22;15704;48.834;8.736;2022-08-04T17:06:09;35.10;49.00
28484;DHT22;15704;48.834;8.736;2022-08-04T17:09:52;35.20;49.00
28484;DHT22;15704;48.834;8.736;2022-08-04T17:13:37;35.20;49.10
28484;DHT22;15704;48.834;8.736;2022-08-04T17:17:40;35.20;49.10
28484;DHT22;15704;48.834;8.736;2022-08-04T17:21:44;35.60;49.20
28484;DHT22;15704;48.834;8.736;2022-08-04T17:25:27;35.60;48.80
28484;DHT22;15704;48.834;8.736;2022-08-04T17:29:30;35.50;48.40
28484;DHT22;15704;48.834;8.736;2022-08-04T17:33:25;35.80;48.30
28484;DHT22;15704;48.834;8.736;2022-08-04T17:37:29;35.90;46.90
28484;DHT22;15704;48.834;8.736;2022-08-04T17:41:23;35.80;47.50
28484;DHT22;15704;48.834;8.736;2022-08-04T17:45:19;35.70;47.40
28484;DHT22;15704;48.834;8.736;2022-08-04T17:49:23;35.70;47.30
28484;DHT22;15704;48.834;8.736;2022-08-04T17:53:10;35.50;46.70
28484;DHT22;15704;48.834;8.736;2022-08-04T17:56:55;35.50;46.70
28484;DHT22;15704;48.834;8.736;2022-08-04T18:00:39;35.50;47.00
28484;DHT22;15704;48.834;8.736;2022-08-04T18:04:31;35.30;47.00
28484;DHT22;15704;48.834;8.736;2022-08-04T18:08:17;35.10;47.20
28484;DHT22;15704;48.834;8.736;2022-08-04T18:12:21;34.40;47.70
28484;DHT22;15704;48.834;8.736;2022-08-04T18:16:05;33.70;48.90
28484;DHT22;15704;48.834;8.736;2022-08-04T18:20:04;33.30;49.00
28484;DHT22;15704;48.834;8.736;2022-08-04T18:23:49;32.80;49.60
28484;DHT22;15704;48.834;8.736;2022-08-04T18:27:33;32.50;50.50
28484;DHT22;15704;48.834;8.736;2022-08-04T18:31:16;32.20;51.30
28484;DHT22;15704;48.834;8.736;2022-08-04T18:34:58;31.90;51.90
28484;DHT22;15704;48.834;8.736;2022-08-04T18:38:49;31.60;52.10
28484;DHT22;15704;48.834;8.736;2022-08-04T18:42:39;31.30;54.70
28484;DHT22;15704;48.834;8.736;2022-08-04T18:46:23;31.00;56.40
28484;DHT22;15704;48.834;8.736;2022-08-04T18:50:08;30.60;58.70
28484;DHT22;15704;48.834;8.736;2022-08-04T18:54:12;30.30;58.10
28484;DHT22;15704;48.834;8.736;2022-08-04T18:57:54;29.90;58.40
28484;DHT22;15704;48.834;8.736;2022-08-04T19:01:41;29.60;58.60
28484;DHT22;15704;48.834;8.736;2022-08-04T19:05:43;29.30;58.60
28484;DHT22;15704;48.834;8.736;2022-08-04T19:09:30;29.10;59.10
28484;DHT22;15704;48.834;8.736;2022-08-04T19:13:32;28.80;59.20
28484;DHT22;15704;48.834;8.736;2022-08-04T19:17:15;28.60;59.60
28484;DHT22;15704;48.834;8.736;2022-08-04T19:21:18;28.40;59.40
28484;DHT22;15704;48.834;8.736;2022-08-04T19:25:22;28.20;59.60
28484;DHT22;15704;48.834;8.736;2022-08-04T19:29:25;28.00;59.70
28484;DHT22;15704;48.834;8.736;2022-08-04T19:33:28;27.80;59.90
28484;DHT22;15704;48.834;8.736;2022-08-04T19:37:30;27.70;60.00
28484;DHT22;15704;48.834;8.736;2022-08-04T19:41:34;27.50;59.70
28484;DHT22;15704;48.834;8.736;2022-08-04T19:45:37;27.40;59.60
28484;DHT22;15704;48.834;8.736;2022-08-04T19:49:26;27.20;59.80
28484;DHT22;15704;48.834;8.736;2022-08-04T19:53:28;27.10;60.00
28484;DHT22;15704;48.834;8.736;2022-08-04T19:57:19;27.00;60.40
28484;DHT22;15704;48.834;8.736;2022-08-04T20:01:15;26.90;60.40
28484;DHT22;15704;48.834;8.736;2022-08-04T20:05:15;26.70;60.00
28484;DHT22;15704;48.834;8.736;2022-08-04T20:09:18;26.60;60.50
28484;DHT22;15704;48.834;8.736;2022-08-04T20:13:08;26.60;60.90
28484;DHT22;15704;48.834;8.736;2022-08-04T20:16:51;26.50;61.60
28484;DHT22;15704;48.834;8.736;2022-08-04T20:20:33;26.40;62.80
28484;DHT22;15704;48.834;8.736;2022-08-04T20:24:20;26.30;62.70
28484;DHT22;15704;48.834;8.736;2022-08-04T20:28:25;26.30;63.00
28484;DHT22;15704;48.834;8.736;2022-08-04T20:32:18;26.20;63.30
28484;DHT22;15704;48.834;8.736;2022-08-04T20:36:03;26.10;63.70
28484;DHT22;15704;48.834;8.736;2022-08-04T20:39:46;26.00;64.10
28484;DHT22;15704;48.834;8.736;2022-08-04T20:43:37;25.90;64.80
28484;DHT22;15704;48.834;8.736;2022-08-04T20:47:21;25.90;64.40
28484;DHT22;15704;48.834;8.736;2022-08-04T20:51:07;25.80;65.20
28484;DHT22;15704;48.834;8.736;2022-08-04T20:54:56;25.70;64.50
28484;DHT22;15704;48.834;8.736;2022-08-04T20:58:40;25.60;65.10
28484;DHT22;15704;48.834;8.736;2022-08-04T21:02:23;25.60;64.00
28484;DHT22;15704;48.834;8.736;2022-08-04T21:06:08;25.60;63.90
28484;DHT22;15704;48.834;8.736;2022-08-04T21:09:51;25.50;64.60
28484;DHT22;15704;48.834;8.736;2022-08-04T21:13:34;25.50;64.30
28484;DHT22;15704;48.834;8.736;2022-08-04T21:17:35;25.40;64.50
28484;DHT22;15704;48.834;8.736;2022-08-04T21:21:38;25.30;64.40
28484;DHT22;15704;48.834;8.736;2022-08-04T21:25:22;25.20;64.50
28484;DHT22;15704;48.834;8.736;2022-08-04T21:29:05;25.20;63.90
28484;DHT22;15704;48.834;8.736;2022-08-04T21:32:51;25.10;63.40
28484;DHT22;15704;48.834;8.736;2022-08-04T21:36:35;25.10;63.60
28484;DHT22;15704;48.834;8.736;2022-08-04T21:40:18;25.00;63.80
28484;DHT22;15704;48.834;8.736;2022-08-04T21:44:16;25.00;63.40
28484;DHT22;15704;48.834;8.736;2022-08-04T21:48:00;25.00;62.70
28484;DHT22;15704;48.834;8.736;2022-08-04T21:51:44;24.90;62.70
28484;DHT22;15704;48.834;8.736;2022-08-04T21:55:39;24.80;62.40
28484;DHT22;15704;48.834;8.736;2022-08-04T21:59:42;24.80;62.50
28484;DHT22;15704;48.834;8.736;2022-08-04T22:03:28;24.70;61.90
28484;DHT22;15704;48.834;8.736;2022-08-04T22:07:30;24.70;62.30
28484;DHT22;15704;48.834;8.736;2022-08-04T22:11:33;24.70;62.80
28484;DHT22;15704;48.834;8.736;2022-08-04T22:15:29;24.70;62.50
28484;DHT22;15704;48.834;8.736;2022-08-04T22:19:33;24.60;62.50
28484;DHT22;15704;48.834;8.736;2022-08-04T22:23:35;24.60;62.30
28484;DHT22;15704;48.834;8.736;2022-08-04T22:27:26;24.60;62.80
28484;DHT22;15704;48.834;8.736;2022-08-04T22:31:35;24.60;62.30
28484;DHT22;15704;48.834;8.736;2022-08-04T22:35:38;24.50;62.30
28484;DHT22;15704;48.834;8.736;2022-08-04T22:52:50;24.20;61.30
28484;DHT22;15704;48.834;8.736;2022-08-04T22:56:37;24.20;62.40
28484;DHT22;15704;48.834;8.736;2022-08-04T23:00:19;24.30;63.40
28484;DHT22;15704;48.834;8.736;2022-08-04T23:04:09;24.40;64.40
28484;DHT22;15704;48.834;8.736;2022-08-04T23:07:52;24.50;63.70
28484;DHT22;15704;48.834;8.736;2022-08-04T23:11:36;24.60;64.30
28484;DHT22;15704;48.834;8.736;2022-08-04T23:15:24;24.60;66.20
28484;DHT22;15704;48.834;8.736;2022-08-04T23:19:14;24.60;65.70
28484;DHT22;15704;48.834;8.736;2022-08-04T23:22:57;24.50;66.40
28484;DHT22;15704;48.834;8.736;2022-08-04T23:26:55;24.60;67.10
28484;DHT22;15704;48.834;8.736;2022-08-04T23:30:38;24.60;67.70
28484;DHT22;15704;48.834;8.736;2022-08-04T23:34:25;24.60;68.30
28484;DHT22;15704;48.834;8.736;2022-08-04T23:38:11;24.60;68.80
28484;DHT22;15704;48.834;8.736;2022-08-04T23:42:12;24.60;69.60
28484;DHT22;15704;48.834;8.736;2022-08-04T23:46:01;24.70;69.60
28484;DHT22;15704;48.834;8.736;2022-08-04T23:49:48;24.90;69.40
28484;DHT22;15704;48.834;8.736;2022-08-04T23:53:39;24.90;69.30
28484;DHT22;15704;48.834;8.736;2022-08-04T23:57:42;25.20;70.00
